River Ranch, Florida
Current Conditions -  °F | °C
As of 10:15 PM on Sunday 21 Dec 2014 (Local Time) from KBOW Reporting Station
Broken Clouds Broken Clouds  
Wind Chill: 66°   Ceiling: 3900
Heat Index: 66°   Visibility: 10mi
Dew Point: 66°   Wind: 5mph
Humidity: 100%   Direction: 50°NE
Pressure: 30.05"   Gusts: NA
Location:  27.9°N, 81.59°W
Report Text: KBOW 220315Z AUTO 05004KT 10SM BKN039 19/19 A3005 RMK AO2 LTG DSNT W AND NW
Loading
Personal Weather Stations






























Interactive Weather Map New forecast layout! Learn more

10-Day Weather Forecast

Advertisements
Track Severe Weather on mobile